createdAt,value
2022-09-30T00:01:29.559Z,12.43
2022-09-30T00:03:57.270Z,14.90
2022-09-30T00:06:24.519Z,13.35
2022-09-30T00:08:50.830Z,11.45
2022-09-30T00:11:21.249Z,10.55
2022-09-30T00:13:49.031Z,13.25
2022-09-30T00:16:15.667Z,13.25
2022-09-30T00:18:42.726Z,13.18
2022-09-30T00:21:09.873Z,15.30
2022-09-30T00:23:40.119Z,11.23
2022-09-30T00:26:08.223Z,12.70
2022-09-30T00:28:34.806Z,13.60
2022-09-30T00:31:06.489Z,13.05
2022-09-30T00:33:33.350Z,13.15
2022-09-30T00:35:59.803Z,12.60
2022-09-30T00:38:26.214Z,9.98
2022-09-30T00:40:52.620Z,11.13
2022-09-30T00:43:21.216Z,14.88
2022-09-30T00:45:54.598Z,10.60
2022-09-30T00:48:24.418Z,11.90
2022-09-30T00:50:55.615Z,13.30
2022-09-30T00:53:27.202Z,12.45
2022-09-30T00:55:53.493Z,12.40
2022-09-30T00:58:22.851Z,13.18
2022-09-30T01:00:50.720Z,13.68
2022-09-30T01:03:18.003Z,12.32
2022-09-30T01:05:44.667Z,10.68
2022-09-30T01:08:11.245Z,13.65
2022-09-30T01:10:37.689Z,15.80
2022-09-30T01:13:04.329Z,11.10
2022-09-30T01:15:54.119Z,13.80
2022-09-30T01:18:29.457Z,13.95
2022-09-30T01:21:08.463Z,11.40
2022-09-30T01:23:56.703Z,13.27
2022-09-30T01:26:47.371Z,11.15
2022-09-30T01:29:16.764Z,13.32
2022-09-30T01:31:54.752Z,17.23
2022-09-30T01:34:27.477Z,13.30
2022-09-30T01:37:03.654Z,12.55
2022-09-30T01:39:37.500Z,14.30
2022-09-30T01:42:08.998Z,13.27
2022-09-30T01:44:41.370Z,10.85
2022-09-30T01:47:12.322Z,10.25
2022-09-30T01:49:57.223Z,14.35
2022-09-30T01:52:38.449Z,12.43
2022-09-30T01:55:18.099Z,13.00
2022-09-30T01:58:03.198Z,11.60
2022-09-30T02:00:30.622Z,8.15
2022-09-30T02:03:00.387Z,10.75
2022-09-30T02:05:35.877Z,15.45
2022-09-30T02:08:05.865Z,9.32
2022-09-30T02:10:42.147Z,10.35
2022-09-30T02:13:11.269Z,9.90
2022-09-30T02:15:43.186Z,8.80
2022-09-30T02:18:19.847Z,8.77
2022-09-30T02:20:49.156Z,9.50
2022-09-30T02:23:42.535Z,13.57
2022-09-30T02:26:29.236Z,14.95
2022-09-30T02:29:03.976Z,9.55
2022-09-30T02:31:34.421Z,7.37
2022-09-30T02:34:04.988Z,10.00
2022-09-30T02:36:37.596Z,7.43
2022-09-30T02:39:36.510Z,7.50
2022-09-30T02:42:12.399Z,6.05
2022-09-30T02:44:39.037Z,10.88
2022-09-30T02:47:11.530Z,9.65
2022-09-30T02:49:46.846Z,10.00
2022-09-30T02:52:36.279Z,13.68
2022-09-30T02:55:10.661Z,10.82
2022-09-30T02:57:57.360Z,10.23
2022-09-30T03:00:24.249Z,10.45
2022-09-30T03:02:54.135Z,11.93
2022-09-30T03:05:20.451Z,10.90
2022-09-30T03:07:46.839Z,12.35
2022-09-30T03:10:16.820Z,13.23
2022-09-30T03:13:00.992Z,10.63
2022-09-30T03:15:30.465Z,11.52
2022-09-30T03:18:15.830Z,10.20
2022-09-30T03:20:51.295Z,11.45
2022-09-30T03:23:27.416Z,11.82
2022-09-30T03:26:04.261Z,10.15
2022-09-30T03:28:36.310Z,10.07
2022-09-30T03:31:31.841Z,13.77
2022-09-30T03:34:19.410Z,11.38
2022-09-30T03:37:05.150Z,13.15
2022-09-30T03:39:39.730Z,15.50
2022-09-30T03:42:38.130Z,15.20
2022-09-30T03:45:20.268Z,10.30
2022-09-30T03:47:52.129Z,10.18
2022-09-30T03:50:20.743Z,14.57
2022-09-30T03:52:48.031Z,11.65
2022-09-30T03:55:15.662Z,13.65
2022-09-30T03:57:44.253Z,15.75
2022-09-30T04:00:11.260Z,14.90
2022-09-30T04:02:37.956Z,11.13
2022-09-30T04:05:08.312Z,12.88
2022-09-30T04:07:35.040Z,10.57
2022-09-30T04:10:04.282Z,9.88
2022-09-30T04:12:30.608Z,9.48
2022-09-30T04:14:56.896Z,11.38
2022-09-30T04:17:23.318Z,9.27
2022-09-30T04:19:50.040Z,12.52
2022-09-30T04:22:16.797Z,11.02
2022-09-30T04:24:43.973Z,9.85
2022-09-30T04:27:10.546Z,14.80
2022-09-30T04:29:36.915Z,11.90
2022-09-30T04:32:03.446Z,12.38
2022-09-30T04:34:29.784Z,13.30
2022-09-30T04:36:56.086Z,12.88
2022-09-30T04:39:22.474Z,21.33
2022-09-30T04:41:48.911Z,16.08
2022-09-30T04:44:15.653Z,61.25
2022-09-30T04:46:43.120Z,16.48
2022-09-30T04:49:09.719Z,12.95
2022-09-30T04:51:36.499Z,15.32
2022-09-30T04:54:03.479Z,9.40
2022-09-30T04:56:30.026Z,18.08
2022-09-30T04:58:56.431Z,15.23
2022-09-30T05:01:22.839Z,16.42
2022-09-30T05:03:50.196Z,16.27
2022-09-30T05:06:16.575Z,16.77
2022-09-30T05:08:46.571Z,17.08
2022-09-30T05:11:17.938Z,12.68
2022-09-30T05:13:44.924Z,22.75
2022-09-30T05:16:11.655Z,16.38
2022-09-30T05:18:39.401Z,17.65
2022-09-30T05:21:05.925Z,11.55
2022-09-30T05:23:32.999Z,13.55
2022-09-30T05:25:59.931Z,13.13
2022-09-30T05:28:26.231Z,12.60
2022-09-30T05:31:00.113Z,13.05
2022-09-30T05:33:28.746Z,13.02
2022-09-30T05:35:55.616Z,18.17
2022-09-30T05:38:21.987Z,15.20
2022-09-30T05:40:48.383Z,23.60
2022-09-30T05:43:14.755Z,32.28
2022-09-30T05:45:43.440Z,42.22
2022-09-30T05:48:09.818Z,41.05
2022-09-30T05:50:36.379Z,38.22
2022-09-30T05:53:02.741Z,37.58
2022-09-30T05:55:30.077Z,57.30
2022-09-30T05:57:56.700Z,69.45
2022-09-30T06:00:23.141Z,43.10
2022-09-30T06:02:52.660Z,19.02
2022-09-30T06:05:19.070Z,14.40
2022-09-30T06:07:45.562Z,14.23
2022-09-30T06:10:12.480Z,15.80
2022-09-30T06:12:39.167Z,16.73
2022-09-30T06:15:05.755Z,14.50
2022-09-30T06:17:32.123Z,13.07
2022-09-30T06:19:58.444Z,12.10
2022-09-30T06:22:24.803Z,12.18
2022-09-30T06:24:54.989Z,15.85
2022-09-30T06:27:22.144Z,13.38
2022-09-30T06:29:49.245Z,15.30
2022-09-30T06:32:15.615Z,11.68
2022-09-30T06:34:41.994Z,11.07
2022-09-30T06:37:08.397Z,12.82
2022-09-30T06:39:35.300Z,11.82
2022-09-30T06:42:01.702Z,14.82
2022-09-30T06:44:28.075Z,13.13
2022-09-30T06:46:54.799Z,12.63
2022-09-30T06:49:22.075Z,14.02
2022-09-30T06:51:51.179Z,15.95
2022-09-30T06:54:19.353Z,10.50
2022-09-30T06:56:47.818Z,9.65
2022-09-30T06:59:16.648Z,12.43
2022-09-30T07:01:44.408Z,14.30
2022-09-30T07:04:11.227Z,15.32
2022-09-30T07:06:38.972Z,13.00
2022-09-30T07:09:06.461Z,15.77
2022-09-30T07:11:32.859Z,14.85
2022-09-30T07:13:59.535Z,14.55
2022-09-30T07:16:25.967Z,14.05
2022-09-30T07:18:52.617Z,19.13
2022-09-30T07:21:18.993Z,16.40
2022-09-30T07:23:47.777Z,16.40
2022-09-30T07:26:18.254Z,13.30
2022-09-30T07:28:45.092Z,12.23
2022-09-30T07:31:31.895Z,13.13
2022-09-30T07:33:59.735Z,11.73
2022-09-30T07:36:33.910Z,10.45
2022-09-30T07:39:03.273Z,8.30
2022-09-30T07:41:29.631Z,9.43
2022-09-30T07:43:57.477Z,9.18
2022-09-30T07:46:26.149Z,7.75
2022-09-30T07:48:54.734Z,9.77
2022-09-30T07:51:28.238Z,9.68
2022-09-30T07:53:56.117Z,9.68
2022-09-30T07:56:23.673Z,9.68
2022-09-30T07:58:53.164Z,6.72
2022-09-30T08:01:19.522Z,8.45
2022-09-30T08:03:45.964Z,8.50
2022-09-30T08:06:14.279Z,7.47
2022-09-30T08:08:41.534Z,8.90
2022-09-30T08:11:07.971Z,13.18
2022-09-30T08:13:34.625Z,7.88
2022-09-30T08:16:01.129Z,7.68
2022-09-30T08:18:31.387Z,12.90
2022-09-30T08:21:01.908Z,9.60
2022-09-30T08:23:29.144Z,12.52
2022-09-30T08:26:00.535Z,14.63
2022-09-30T08:28:29.261Z,19.75
2022-09-30T08:30:55.560Z,13.13
2022-09-30T08:33:21.958Z,10.95
2022-09-30T08:35:48.324Z,7.18
2022-09-30T08:38:14.632Z,9.20
2022-09-30T08:40:49.576Z,9.20
2022-09-30T08:43:31.485Z,10.43
2022-09-30T08:46:02.085Z,9.95
2022-09-30T08:48:28.869Z,6.57
2022-09-30T08:51:07.359Z,8.45
2022-09-30T08:53:36.286Z,8.52
2022-09-30T08:56:03.447Z,6.03
2022-09-30T08:58:37.742Z,5.97
2022-09-30T09:01:06.832Z,4.82
2022-09-30T09:03:34.297Z,7.25
2022-09-30T09:06:19.216Z,5.55
2022-09-30T09:08:57.755Z,7.10
2022-09-30T09:12:03.236Z,4.68
2022-09-30T09:14:29.548Z,5.63
2022-09-30T09:16:58.837Z,6.00
2022-09-30T09:19:25.984Z,6.10
2022-09-30T09:21:54.909Z,5.70
2022-09-30T09:24:23.389Z,5.82
2022-09-30T09:26:51.234Z,3.83
2022-09-30T09:29:30.023Z,5.82
2022-09-30T09:31:57.231Z,6.15
2022-09-30T09:34:24.210Z,6.25
2022-09-30T09:37:09.035Z,6.57
2022-09-30T09:39:38.480Z,4.35
2022-09-30T09:42:14.030Z,5.93
2022-09-30T09:45:01.910Z,8.68
2022-09-30T09:47:28.253Z,8.13
2022-09-30T09:49:57.708Z,5.70
2022-09-30T09:52:27.417Z,7.40
2022-09-30T09:54:56.777Z,9.77
2022-09-30T09:57:33.886Z,5.90
2022-09-30T10:00:22.168Z,5.78
2022-09-30T10:03:08.326Z,5.47
2022-09-30T10:08:10.377Z,7.50
2022-09-30T10:10:56.895Z,5.82
2022-09-30T10:13:23.308Z,5.28
2022-09-30T10:15:51.591Z,6.75
2022-09-30T10:18:35.111Z,8.77
2022-09-30T10:21:21.797Z,4.53
2022-09-30T10:23:48.501Z,3.97
2022-09-30T10:26:14.928Z,8.32
2022-09-30T10:28:46.235Z,4.70
2022-09-30T10:31:32.952Z,8.05
2022-09-30T10:34:18.572Z,4.28
2022-09-30T10:36:45.703Z,4.95
2022-09-30T10:39:31.154Z,5.30
2022-09-30T10:42:07.474Z,5.63
2022-09-30T10:44:39.080Z,5.82
2022-09-30T10:47:05.677Z,4.25
2022-09-30T10:49:36.473Z,4.72
2022-09-30T10:52:03.088Z,6.13
2022-09-30T10:54:49.542Z,4.13
2022-09-30T10:57:36.185Z,9.30
2022-09-30T11:00:11.550Z,7.40
2022-09-30T11:02:43.984Z,6.78
2022-09-30T11:05:10.516Z,7.03
2022-09-30T11:08:02.879Z,5.85
2022-09-30T11:10:48.073Z,8.90
2022-09-30T11:13:24.842Z,4.93
2022-09-30T11:15:51.200Z,4.75
2022-09-30T11:18:22.234Z,6.65
2022-09-30T11:20:52.687Z,4.20
2022-09-30T11:23:23.284Z,5.00
2022-09-30T11:26:04.938Z,3.65
2022-09-30T11:28:37.340Z,7.80
2022-09-30T11:31:16.051Z,4.47
2022-09-30T11:33:48.249Z,4.53
2022-09-30T11:36:34.107Z,3.30
2022-09-30T11:39:11.937Z,4.65
2022-09-30T11:41:40.179Z,3.53
2022-09-30T11:44:38.876Z,5.68
2022-09-30T11:47:20.161Z,3.63
2022-09-30T11:50:06.790Z,5.60
2022-09-30T11:52:51.855Z,3.88
2022-09-30T11:55:21.182Z,4.90
2022-09-30T11:57:50.773Z,5.90
2022-09-30T12:00:18.057Z,4.07
2022-09-30T12:02:46.668Z,6.82
2022-09-30T12:05:31.650Z,3.38
2022-09-30T12:08:07.068Z,2.70
2022-09-30T12:10:36.025Z,3.63
2022-09-30T12:13:12.318Z,2.95
2022-09-30T12:15:40.952Z,7.05
2022-09-30T12:18:12.410Z,4.40
2022-09-30T12:20:43.429Z,5.25
2022-09-30T12:23:10.440Z,3.80
2022-09-30T12:25:39.821Z,3.83
2022-09-30T12:28:42.216Z,4.10
2022-09-30T12:31:28.836Z,3.83
2022-09-30T12:34:02.804Z,3.15
2022-09-30T12:36:44.630Z,3.00
2022-09-30T12:39:29.632Z,3.10
2022-09-30T12:42:03.755Z,4.50
2022-09-30T12:44:42.230Z,5.18
2022-09-30T12:47:28.660Z,4.68
2022-09-30T12:49:55.897Z,1.63
2022-09-30T12:52:22.488Z,3.38
2022-09-30T12:54:52.205Z,5.15
2022-09-30T12:57:26.918Z,3.35
2022-09-30T12:59:55.653Z,2.83
2022-09-30T13:02:31.825Z,2.45
2022-09-30T13:05:17.925Z,4.25
2022-09-30T13:08:03.138Z,3.38
2022-09-30T13:10:30.728Z,2.60
2022-09-30T13:13:17.003Z,3.38
2022-09-30T13:15:44.431Z,5.10
2022-09-30T13:18:20.065Z,4.20
2022-09-30T13:23:32.793Z,2.42
2022-09-30T13:26:01.105Z,7.38
2022-09-30T13:28:29.541Z,3.88
2022-09-30T13:31:13.626Z,5.28
2022-09-30T13:33:44.588Z,4.28
2022-09-30T13:36:19.253Z,6.00
2022-09-30T13:38:45.820Z,5.15
2022-09-30T13:41:23.633Z,10.25
2022-09-30T13:43:50.960Z,7.38
2022-09-30T13:46:35.599Z,8.75
2022-09-30T13:49:14.005Z,4.88
2022-09-30T13:51:41.748Z,4.78
2022-09-30T13:54:13.253Z,6.65
2022-09-30T13:56:40.824Z,4.88
2022-09-30T13:59:22.566Z,6.47
2022-09-30T14:02:07.672Z,4.38
2022-09-30T14:04:52.766Z,5.68
2022-09-30T14:07:37.167Z,5.00
2022-09-30T14:10:11.330Z,5.00
2022-09-30T14:12:37.705Z,5.10
2022-09-30T14:15:22.731Z,4.32
2022-09-30T14:18:01.252Z,6.45
2022-09-30T14:20:27.586Z,3.35
2022-09-30T14:22:53.890Z,3.47
2022-09-30T14:25:21.594Z,5.43
2022-09-30T14:27:50.795Z,2.90
2022-09-30T14:30:22.041Z,7.45
2022-09-30T14:33:01.521Z,4.38
2022-09-30T14:35:32.138Z,3.03
2022-09-30T14:38:01.163Z,4.40
2022-09-30T14:40:29.309Z,3.85
2022-09-30T14:42:59.825Z,2.80
2022-09-30T14:45:27.824Z,3.42
2022-09-30T14:47:57.156Z,5.15
2022-09-30T14:50:26.000Z,2.65
2022-09-30T14:52:55.741Z,5.18
2022-09-30T14:55:25.328Z,2.67
2022-09-30T14:57:52.025Z,4.20
2022-09-30T15:00:23.272Z,4.90
2022-09-30T15:02:49.877Z,3.17
2022-09-30T15:05:17.709Z,4.55
2022-09-30T15:07:44.169Z,1.73
2022-09-30T15:10:18.007Z,3.53
2022-09-30T15:12:45.328Z,3.25
2022-09-30T15:15:23.877Z,2.17
2022-09-30T15:17:52.005Z,5.25
2022-09-30T15:20:24.220Z,2.58
2022-09-30T15:22:53.829Z,3.80
2022-09-30T15:25:21.816Z,3.15
2022-09-30T15:27:49.977Z,4.80
2022-09-30T15:30:17.172Z,3.13
2022-09-30T15:32:44.392Z,3.78
2022-09-30T15:35:13.223Z,2.55
2022-09-30T15:37:39.646Z,4.85
2022-09-30T15:40:31.725Z,6.03
2022-09-30T15:43:03.004Z,6.03
2022-09-30T15:45:34.507Z,5.78
2022-09-30T15:48:04.671Z,4.32
2022-09-30T15:50:53.937Z,4.65
2022-09-30T15:53:25.117Z,6.90
2022-09-30T15:55:53.452Z,7.28
2022-09-30T15:58:41.451Z,7.10
2022-09-30T16:01:10.575Z,5.57
2022-09-30T16:03:37.730Z,5.75
2022-09-30T16:06:06.079Z,7.07
2022-09-30T16:08:37.896Z,4.72
2022-09-30T16:11:07.849Z,7.50
2022-09-30T16:13:36.364Z,7.43
2022-09-30T16:16:02.702Z,5.10
2022-09-30T16:18:32.815Z,7.10
2022-09-30T16:21:02.849Z,4.80
2022-09-30T16:23:36.721Z,5.45
2022-09-30T16:26:18.840Z,8.48
2022-09-30T16:28:45.134Z,7.72
2022-09-30T16:31:11.856Z,5.93
2022-09-30T16:33:40.950Z,4.85
2022-09-30T16:36:07.952Z,7.65
2022-09-30T16:38:34.233Z,7.20
2022-09-30T16:41:04.348Z,8.85
2022-09-30T16:43:31.596Z,9.05
2022-09-30T16:45:59.742Z,8.30
2022-09-30T16:48:27.592Z,8.38
2022-09-30T16:51:27.044Z,8.32
2022-09-30T16:53:53.366Z,9.90
2022-09-30T16:56:19.941Z,8.90
2022-09-30T16:58:47.296Z,8.73
2022-09-30T17:01:18.145Z,11.07
2022-09-30T17:03:44.467Z,7.45
2022-09-30T17:06:11.254Z,11.05
2022-09-30T17:08:37.682Z,8.55
2022-09-30T17:11:04.211Z,7.72
2022-09-30T17:13:30.545Z,8.25
2022-09-30T17:15:57.164Z,13.07
2022-09-30T17:18:23.469Z,9.50
2022-09-30T17:20:53.462Z,7.40
2022-09-30T17:23:23.844Z,12.63
2022-09-30T17:25:50.488Z,11.32
2022-09-30T17:28:17.180Z,6.30
2022-09-30T17:30:44.265Z,10.82
2022-09-30T17:33:10.727Z,13.02
2022-09-30T17:35:38.461Z,9.60
2022-09-30T17:38:11.776Z,6.22
2022-09-30T17:40:56.802Z,9.60
2022-09-30T17:43:23.185Z,9.77
2022-09-30T17:45:50.841Z,8.70
2022-09-30T17:48:18.055Z,7.50
2022-09-30T17:50:47.906Z,8.48
2022-09-30T17:53:18.013Z,5.97
2022-09-30T17:55:47.223Z,6.45
2022-09-30T17:58:14.068Z,10.32
2022-09-30T18:00:40.509Z,6.72
2022-09-30T18:03:08.835Z,7.82
2022-09-30T18:05:35.746Z,8.65
2022-09-30T18:08:02.074Z,7.82
2022-09-30T18:10:30.786Z,9.50
2022-09-30T18:12:57.259Z,8.65
2022-09-30T18:15:23.624Z,11.82
2022-09-30T18:17:50.315Z,7.13
2022-09-30T18:20:17.857Z,5.35
2022-09-30T18:22:46.070Z,6.40
2022-09-30T18:25:22.858Z,7.25
2022-09-30T18:27:54.700Z,9.65
2022-09-30T18:30:21.760Z,8.35
2022-09-30T18:32:49.587Z,7.95
2022-09-30T18:35:18.337Z,8.48
2022-09-30T18:37:47.286Z,9.63
2022-09-30T18:40:16.727Z,6.90
2022-09-30T18:42:43.698Z,9.13
2022-09-30T18:45:12.675Z,7.47
2022-09-30T18:47:42.248Z,7.65
2022-09-30T18:50:09.456Z,8.73
2022-09-30T18:52:35.995Z,8.88
2022-09-30T18:55:02.499Z,8.15
2022-09-30T18:57:30.094Z,8.25
2022-09-30T18:59:56.815Z,6.28
2022-09-30T19:02:23.183Z,6.40
2022-09-30T19:04:49.501Z,6.95
2022-09-30T19:07:19.915Z,7.95
2022-09-30T19:09:46.586Z,10.15
2022-09-30T19:12:15.084Z,7.80
2022-09-30T19:14:44.326Z,12.55
2022-09-30T19:17:11.396Z,8.80
2022-09-30T19:19:41.259Z,8.93
2022-09-30T19:22:07.965Z,9.02
2022-09-30T19:24:35.844Z,11.35
2022-09-30T19:27:02.346Z,12.32
2022-09-30T19:29:28.705Z,11.63
2022-09-30T19:31:55.100Z,9.27
2022-09-30T19:34:31.151Z,9.07
2022-09-30T19:37:00.045Z,12.73
2022-09-30T19:39:37.176Z,9.88
2022-09-30T19:42:08.242Z,9.63
2022-09-30T19:44:36.258Z,7.47
2022-09-30T19:47:02.562Z,12.27
2022-09-30T19:49:31.052Z,9.77
2022-09-30T19:51:57.330Z,13.18
2022-09-30T19:54:35.866Z,10.77
2022-09-30T19:57:06.434Z,9.55
2022-09-30T19:59:32.787Z,7.35
2022-09-30T20:02:00.350Z,10.43
2022-09-30T20:04:29.370Z,7.10
2022-09-30T20:06:57.914Z,6.78
2022-09-30T20:09:24.394Z,9.70
2022-09-30T20:11:50.844Z,12.65
2022-09-30T20:14:35.698Z,12.43
2022-09-30T20:17:02.104Z,11.82
2022-09-30T20:19:28.571Z,7.35
2022-09-30T20:21:54.971Z,8.95
2022-09-30T20:24:21.438Z,7.03
2022-09-30T20:26:47.857Z,7.45
2022-09-30T20:29:14.682Z,6.88
2022-09-30T20:31:41.789Z,5.63
2022-09-30T20:34:09.503Z,8.40
2022-09-30T20:36:36.045Z,8.90
2022-09-30T20:39:04.006Z,5.57
2022-09-30T20:41:35.804Z,7.55
2022-09-30T20:44:03.188Z,9.15
2022-09-30T20:46:32.716Z,10.82
2022-09-30T20:48:59.758Z,8.05
2022-09-30T20:51:26.491Z,7.40
2022-09-30T20:53:55.887Z,9.07
2022-09-30T20:56:22.922Z,5.22
2022-09-30T20:58:49.883Z,7.15
2022-09-30T21:01:18.640Z,9.57
2022-09-30T21:03:50.079Z,8.10
2022-09-30T21:06:26.942Z,10.15
2022-09-30T21:08:54.067Z,7.30
2022-09-30T21:11:23.512Z,13.00
2022-09-30T21:13:51.904Z,9.85
2022-09-30T21:16:20.435Z,9.18
2022-09-30T21:18:47.108Z,7.20
2022-09-30T21:21:14.555Z,8.35
2022-09-30T21:23:41.296Z,9.45
2022-09-30T21:26:08.948Z,8.68
2022-09-30T21:28:36.033Z,10.63
2022-09-30T21:31:14.258Z,9.98
2022-09-30T21:33:40.623Z,11.73
2022-09-30T21:36:07.135Z,8.50
2022-09-30T21:38:34.122Z,10.25
2022-09-30T21:41:02.812Z,7.68
2022-09-30T21:43:33.335Z,10.45
2022-09-30T21:46:04.476Z,8.88
2022-09-30T21:48:33.148Z,9.60
2022-09-30T21:50:59.836Z,11.15
2022-09-30T21:53:27.252Z,10.55
2022-09-30T21:55:57.549Z,8.77
2022-09-30T21:58:25.273Z,8.23
2022-09-30T22:00:52.062Z,9.43
2022-09-30T22:03:18.704Z,9.15
2022-09-30T22:05:50.825Z,8.05
2022-09-30T22:08:17.183Z,10.15
2022-09-30T22:10:43.696Z,14.93
2022-09-30T22:13:11.733Z,13.57
2022-09-30T22:15:38.057Z,10.02
2022-09-30T22:18:07.303Z,12.98
2022-09-30T22:20:35.551Z,10.30
2022-09-30T22:23:01.832Z,16.63
2022-09-30T22:25:30.884Z,11.73
2022-09-30T22:27:57.260Z,10.38
2022-09-30T22:30:23.929Z,11.77
2022-09-30T22:33:10.225Z,17.23
2022-09-30T22:35:55.102Z,11.15
2022-09-30T22:38:21.978Z,16.05
2022-09-30T22:40:48.642Z,12.90
2022-09-30T22:43:15.270Z,15.82
2022-09-30T22:45:43.901Z,10.18
2022-09-30T22:48:10.392Z,14.18
2022-09-30T22:50:36.781Z,13.07
2022-09-30T22:53:04.579Z,11.27
2022-09-30T22:55:32.023Z,11.20
2022-09-30T22:57:58.309Z,8.57
2022-09-30T23:00:24.598Z,11.63
2022-09-30T23:02:52.835Z,12.07
2022-09-30T23:05:21.023Z,14.80
2022-09-30T23:07:47.335Z,12.07
2022-09-30T23:10:13.818Z,15.50
2022-09-30T23:12:43.590Z,13.65
2022-09-30T23:15:09.998Z,9.25
2022-09-30T23:17:36.421Z,10.07
2022-09-30T23:20:02.897Z,9.50
2022-09-30T23:22:29.191Z,8.32
2022-09-30T23:24:55.465Z,8.93
2022-09-30T23:27:21.852Z,9.50
2022-09-30T23:29:48.165Z,7.40
2022-09-30T23:32:14.536Z,12.20
2022-09-30T23:34:40.879Z,8.43
2022-09-30T23:37:07.209Z,9.32
2022-09-30T23:39:33.766Z,8.27
2022-09-30T23:42:00.076Z,9.10
2022-09-30T23:44:28.510Z,7.97
2022-09-30T23:47:13.376Z,7.50
2022-09-30T23:49:40.380Z,11.48
2022-09-30T23:52:11.694Z,7.78
2022-09-30T23:54:39.534Z,8.77
2022-09-30T23:57:06.062Z,8.40
2022-09-30T23:59:32.368Z,7.68
